sensor_id;sensor_type;location;lat;lon;timestamp;P1;durP1;ratioP1;P2;durP2;ratioP2
9005;SDS011;62284;50.702;7.140;2022-09-14T00:01:38;7.70;;;7.10;;
9005;SDS011;62284;50.702;7.140;2022-09-14T00:04:11;8.00;;;7.28;;
9005;SDS011;62284;50.702;7.140;2022-09-14T00:06:39;7.47;;;6.88;;
9005;SDS011;62284;50.702;7.140;2022-09-14T00:09:07;7.80;;;7.20;;
9005;SDS011;62284;50.702;7.140;2022-09-14T00:11:38;8.30;;;7.50;;
9005;SDS011;62284;50.702;7.140;2022-09-14T00:14:05;7.35;;;6.72;;
9005;SDS011;62284;50.702;7.140;2022-09-14T00:16:33;8.40;;;7.80;;
9005;SDS011;62284;50.702;7.140;2022-09-14T00:19:04;9.60;;;7.70;;
9005;SDS011;62284;50.702;7.140;2022-09-14T00:21:35;8.32;;;7.50;;
9005;SDS011;62284;50.702;7.140;2022-09-14T00:24:04;7.90;;;7.30;;
9005;SDS011;62284;50.702;7.140;2022-09-14T00:26:32;8.23;;;7.43;;
9005;SDS011;62284;50.702;7.140;2022-09-14T00:28:59;10.10;;;7.70;;
9005;SDS011;62284;50.702;7.140;2022-09-14T00:31:29;7.78;;;7.07;;
9005;SDS011;62284;50.702;7.140;2022-09-14T00:33:56;8.45;;;7.65;;
9005;SDS011;62284;50.702;7.140;2022-09-14T00:36:24;9.20;;;8.40;;
9005;SDS011;62284;50.702;7.140;2022-09-14T00:38:54;10.63;;;9.75;;
9005;SDS011;62284;50.702;7.140;2022-09-14T00:41:23;12.07;;;10.88;;
9005;SDS011;62284;50.702;7.140;2022-09-14T00:43:52;11.68;;;10.77;;
9005;SDS011;62284;50.702;7.140;2022-09-14T00:46:21;12.48;;;11.35;;
9005;SDS011;62284;50.702;7.140;2022-09-14T00:48:48;12.40;;;11.30;;
9005;SDS011;62284;50.702;7.140;2022-09-14T00:51:16;11.55;;;10.45;;
9005;SDS011;62284;50.702;7.140;2022-09-14T00:53:44;11.95;;;10.82;;
9005;SDS011;62284;50.702;7.140;2022-09-14T00:56:13;12.50;;;11.40;;
9005;SDS011;62284;50.702;7.140;2022-09-14T00:58:40;12.13;;;11.13;;
9005;SDS011;62284;50.702;7.140;2022-09-14T01:01:08;12.20;;;11.20;;
9005;SDS011;62284;50.702;7.140;2022-09-14T01:03:35;12.27;;;11.10;;
9005;SDS011;62284;50.702;7.140;2022-09-14T01:06:03;12.40;;;11.20;;
9005;SDS011;62284;50.702;7.140;2022-09-14T01:08:42;11.98;;;10.88;;
9005;SDS011;62284;50.702;7.140;2022-09-14T01:11:32;12.35;;;11.35;;
9005;SDS011;62284;50.702;7.140;2022-09-14T01:14:10;11.55;;;10.65;;
9005;SDS011;62284;50.702;7.140;2022-09-14T01:16:43;11.32;;;10.40;;
9005;SDS011;62284;50.702;7.140;2022-09-14T01:19:20;10.27;;;9.45;;
9005;SDS011;62284;50.702;7.140;2022-09-14T01:21:51;10.95;;;9.75;;
9005;SDS011;62284;50.702;7.140;2022-09-14T01:24:25;10.25;;;9.32;;
9005;SDS011;62284;50.702;7.140;2022-09-14T01:27:20;10.20;;;9.30;;
9005;SDS011;62284;50.702;7.140;2022-09-14T01:29:54;9.15;;;8.45;;
9005;SDS011;62284;50.702;7.140;2022-09-14T01:32:29;10.70;;;9.80;;
9005;SDS011;62284;50.702;7.140;2022-09-14T01:35:00;10.50;;;9.50;;
9005;SDS011;62284;50.702;7.140;2022-09-14T01:37:32;9.93;;;8.98;;
9005;SDS011;62284;50.702;7.140;2022-09-14T01:40:04;11.30;;;10.38;;
9005;SDS011;62284;50.702;7.140;2022-09-14T01:42:35;11.07;;;10.18;;
9005;SDS011;62284;50.702;7.140;2022-09-14T01:45:06;11.65;;;10.55;;
9005;SDS011;62284;50.702;7.140;2022-09-14T01:47:37;10.70;;;9.90;;
9005;SDS011;62284;50.702;7.140;2022-09-14T01:50:08;12.18;;;10.95;;
9005;SDS011;62284;50.702;7.140;2022-09-14T01:52:41;11.48;;;10.40;;
9005;SDS011;62284;50.702;7.140;2022-09-14T01:55:12;11.65;;;10.60;;
9005;SDS011;62284;50.702;7.140;2022-09-14T01:57:45;12.30;;;11.15;;
9005;SDS011;62284;50.702;7.140;2022-09-14T02:00:16;11.48;;;10.30;;
9005;SDS011;62284;50.702;7.140;2022-09-14T02:02:45;10.63;;;9.73;;
9005;SDS011;62284;50.702;7.140;2022-09-14T02:05:15;11.48;;;10.48;;
9005;SDS011;62284;50.702;7.140;2022-09-14T02:07:46;11.55;;;10.55;;
9005;SDS011;62284;50.702;7.140;2022-09-14T02:10:14;10.85;;;9.82;;
9005;SDS011;62284;50.702;7.140;2022-09-14T02:12:42;10.20;;;9.38;;
9005;SDS011;62284;50.702;7.140;2022-09-14T02:15:12;9.80;;;9.00;;
9005;SDS011;62284;50.702;7.140;2022-09-14T02:17:40;8.90;;;8.20;;
9005;SDS011;62284;50.702;7.140;2022-09-14T02:20:14;9.32;;;8.63;;
9005;SDS011;62284;50.702;7.140;2022-09-14T02:22:45;9.23;;;8.63;;
9005;SDS011;62284;50.702;7.140;2022-09-14T02:25:13;8.98;;;7.85;;
9005;SDS011;62284;50.702;7.140;2022-09-14T02:27:40;9.32;;;8.50;;
9005;SDS011;62284;50.702;7.140;2022-09-14T02:30:09;9.13;;;8.43;;
9005;SDS011;62284;50.702;7.140;2022-09-14T02:32:38;9.25;;;8.55;;
9005;SDS011;62284;50.702;7.140;2022-09-14T02:35:13;9.27;;;8.38;;
9005;SDS011;62284;50.702;7.140;2022-09-14T02:37:47;8.85;;;8.05;;
9005;SDS011;62284;50.702;7.140;2022-09-14T02:40:39;8.48;;;7.68;;
9005;SDS011;62284;50.702;7.140;2022-09-14T02:43:18;8.70;;;8.00;;
9005;SDS011;62284;50.702;7.140;2022-09-14T02:45:56;7.68;;;7.07;;
9005;SDS011;62284;50.702;7.140;2022-09-14T02:48:33;8.93;;;8.23;;
9005;SDS011;62284;50.702;7.140;2022-09-14T02:51:07;8.75;;;8.05;;
9005;SDS011;62284;50.702;7.140;2022-09-14T02:53:41;10.32;;;9.45;;
9005;SDS011;62284;50.702;7.140;2022-09-14T02:56:13;9.30;;;8.60;;
9005;SDS011;62284;50.702;7.140;2022-09-14T02:58:42;9.48;;;8.05;;
9005;SDS011;62284;50.702;7.140;2022-09-14T03:01:12;8.90;;;8.20;;
9005;SDS011;62284;50.702;7.140;2022-09-14T03:03:40;9.10;;;8.50;;
9005;SDS011;62284;50.702;7.140;2022-09-14T03:06:07;8.55;;;7.93;;
9005;SDS011;62284;50.702;7.140;2022-09-14T03:08:34;8.82;;;8.18;;
9005;SDS011;62284;50.702;7.140;2022-09-14T03:11:01;9.27;;;8.43;;
9005;SDS011;62284;50.702;7.140;2022-09-14T03:13:28;9.45;;;8.80;;
9005;SDS011;62284;50.702;7.140;2022-09-14T03:15:55;9.55;;;8.85;;
9005;SDS011;62284;50.702;7.140;2022-09-14T03:18:23;9.23;;;8.63;;
9005;SDS011;62284;50.702;7.140;2022-09-14T03:20:50;10.25;;;9.38;;
9005;SDS011;62284;50.702;7.140;2022-09-14T03:23:17;9.50;;;8.85;;
9005;SDS011;62284;50.702;7.140;2022-09-14T03:25:44;9.27;;;8.57;;
9005;SDS011;62284;50.702;7.140;2022-09-14T03:28:11;10.02;;;9.32;;
9005;SDS011;62284;50.702;7.140;2022-09-14T03:30:38;10.15;;;9.35;;
9005;SDS011;62284;50.702;7.140;2022-09-14T03:33:05;10.23;;;9.52;;
9005;SDS011;62284;50.702;7.140;2022-09-14T03:35:33;10.30;;;9.50;;
9005;SDS011;62284;50.702;7.140;2022-09-14T03:38:00;9.70;;;9.00;;
9005;SDS011;62284;50.702;7.140;2022-09-14T03:40:28;10.55;;;9.75;;
9005;SDS011;62284;50.702;7.140;2022-09-14T03:42:55;9.88;;;9.13;;
9005;SDS011;62284;50.702;7.140;2022-09-14T03:45:22;10.15;;;9.45;;
9005;SDS011;62284;50.702;7.140;2022-09-14T03:47:49;9.63;;;8.82;;
9005;SDS011;62284;50.702;7.140;2022-09-14T03:50:16;10.07;;;9.27;;
9005;SDS011;62284;50.702;7.140;2022-09-14T03:52:45;10.55;;;9.68;;
9005;SDS011;62284;50.702;7.140;2022-09-14T03:55:12;9.88;;;9.18;;
9005;SDS011;62284;50.702;7.140;2022-09-14T03:57:39;10.73;;;9.80;;
9005;SDS011;62284;50.702;7.140;2022-09-14T04:00:06;10.65;;;9.82;;
9005;SDS011;62284;50.702;7.140;2022-09-14T04:02:34;9.95;;;9.15;;
9005;SDS011;62284;50.702;7.140;2022-09-14T04:05:01;10.77;;;9.98;;
9005;SDS011;62284;50.702;7.140;2022-09-14T04:07:28;10.10;;;9.25;;
9005;SDS011;62284;50.702;7.140;2022-09-14T04:09:56;10.55;;;9.80;;
9005;SDS011;62284;50.702;7.140;2022-09-14T04:12:23;10.07;;;9.27;;
9005;SDS011;62284;50.702;7.140;2022-09-14T04:14:50;9.80;;;9.02;;
9005;SDS011;62284;50.702;7.140;2022-09-14T04:17:17;9.88;;;9.18;;
9005;SDS011;62284;50.702;7.140;2022-09-14T04:19:44;10.10;;;9.30;;
9005;SDS011;62284;50.702;7.140;2022-09-14T04:22:11;10.45;;;9.65;;
9005;SDS011;62284;50.702;7.140;2022-09-14T04:24:37;10.55;;;9.75;;
9005;SDS011;62284;50.702;7.140;2022-09-14T04:27:06;10.38;;;9.57;;
9005;SDS011;62284;50.702;7.140;2022-09-14T04:29:32;10.40;;;9.70;;
9005;SDS011;62284;50.702;7.140;2022-09-14T04:31:59;10.80;;;10.00;;
9005;SDS011;62284;50.702;7.140;2022-09-14T04:34:26;10.30;;;9.48;;
9005;SDS011;62284;50.702;7.140;2022-09-14T04:36:53;10.90;;;9.90;;
9005;SDS011;62284;50.702;7.140;2022-09-14T04:39:20;10.50;;;9.70;;
9005;SDS011;62284;50.702;7.140;2022-09-14T04:41:47;10.73;;;9.93;;
9005;SDS011;62284;50.702;7.140;2022-09-14T04:44:15;10.50;;;9.70;;
9005;SDS011;62284;50.702;7.140;2022-09-14T04:46:42;10.43;;;9.63;;
9005;SDS011;62284;50.702;7.140;2022-09-14T04:49:09;10.25;;;9.45;;
9005;SDS011;62284;50.702;7.140;2022-09-14T04:51:37;9.00;;;8.15;;
9005;SDS011;62284;50.702;7.140;2022-09-14T04:54:04;9.32;;;8.50;;
9005;SDS011;62284;50.702;7.140;2022-09-14T04:56:33;8.60;;;7.90;;
9005;SDS011;62284;50.702;7.140;2022-09-14T04:59:01;8.95;;;8.25;;
9005;SDS011;62284;50.702;7.140;2022-09-14T05:01:32;8.30;;;7.57;;
9005;SDS011;62284;50.702;7.140;2022-09-14T05:04:01;7.40;;;6.90;;
9005;SDS011;62284;50.702;7.140;2022-09-14T05:06:29;7.25;;;6.75;;
9005;SDS011;62284;50.702;7.140;2022-09-14T05:08:58;7.13;;;6.63;;
9005;SDS011;62284;50.702;7.140;2022-09-14T05:11:29;7.63;;;6.88;;
9005;SDS011;62284;50.702;7.140;2022-09-14T05:13:57;7.00;;;6.50;;
9005;SDS011;62284;50.702;7.140;2022-09-14T05:16:25;6.38;;;5.97;;
9005;SDS011;62284;50.702;7.140;2022-09-14T05:18:55;7.63;;;7.07;;
9005;SDS011;62284;50.702;7.140;2022-09-14T05:21:25;7.47;;;6.85;;
9005;SDS011;62284;50.702;7.140;2022-09-14T05:23:53;6.40;;;6.00;;
9005;SDS011;62284;50.702;7.140;2022-09-14T05:26:21;6.75;;;6.25;;
9005;SDS011;62284;50.702;7.140;2022-09-14T05:28:49;6.80;;;6.30;;
9005;SDS011;62284;50.702;7.140;2022-09-14T05:31:17;6.53;;;6.03;;
9005;SDS011;62284;50.702;7.140;2022-09-14T05:33:44;7.15;;;6.55;;
9005;SDS011;62284;50.702;7.140;2022-09-14T05:36:13;5.80;;;5.30;;
9005;SDS011;62284;50.702;7.140;2022-09-14T05:38:40;5.68;;;5.28;;
9005;SDS011;62284;50.702;7.140;2022-09-14T05:41:08;6.20;;;5.70;;
9005;SDS011;62284;50.702;7.140;2022-09-14T05:43:36;6.38;;;5.88;;
9005;SDS011;62284;50.702;7.140;2022-09-14T05:46:04;6.50;;;6.10;;
9005;SDS011;62284;50.702;7.140;2022-09-14T05:48:33;6.00;;;5.50;;
9005;SDS011;62284;50.702;7.140;2022-09-14T05:51:02;6.35;;;5.85;;
9005;SDS011;62284;50.702;7.140;2022-09-14T05:53:32;5.82;;;5.43;;
9005;SDS011;62284;50.702;7.140;2022-09-14T05:56:00;6.25;;;5.85;;
9005;SDS011;62284;50.702;7.140;2022-09-14T05:58:27;5.55;;;5.07;;
9005;SDS011;62284;50.702;7.140;2022-09-14T06:00:54;5.03;;;4.63;;
9005;SDS011;62284;50.702;7.140;2022-09-14T06:03:21;5.28;;;4.97;;
9005;SDS011;62284;50.702;7.140;2022-09-14T06:05:48;5.20;;;4.80;;
9005;SDS011;62284;50.702;7.140;2022-09-14T06:08:18;5.05;;;4.75;;
9005;SDS011;62284;50.702;7.140;2022-09-14T06:10:47;5.28;;;4.80;;
9005;SDS011;62284;50.702;7.140;2022-09-14T06:13:14;5.40;;;5.00;;
9005;SDS011;62284;50.702;7.140;2022-09-14T06:15:41;5.18;;;4.78;;
9005;SDS011;62284;50.702;7.140;2022-09-14T06:18:07;5.45;;;5.05;;
9005;SDS011;62284;50.702;7.140;2022-09-14T06:20:34;5.72;;;4.97;;
9005;SDS011;62284;50.702;7.140;2022-09-14T06:23:01;4.75;;;4.45;;
9005;SDS011;62284;50.702;7.140;2022-09-14T06:25:28;5.32;;;4.93;;
9005;SDS011;62284;50.702;7.140;2022-09-14T06:27:56;5.60;;;5.10;;
9005;SDS011;62284;50.702;7.140;2022-09-14T06:30:23;4.53;;;4.22;;
9005;SDS011;62284;50.702;7.140;2022-09-14T06:32:50;5.63;;;5.22;;
9005;SDS011;62284;50.702;7.140;2022-09-14T06:35:17;4.32;;;4.03;;
9005;SDS011;62284;50.702;7.140;2022-09-14T06:37:44;5.40;;;4.93;;
9005;SDS011;62284;50.702;7.140;2022-09-14T06:40:11;6.53;;;6.03;;
9005;SDS011;62284;50.702;7.140;2022-09-14T06:42:37;5.53;;;5.13;;
9005;SDS011;62284;50.702;7.140;2022-09-14T06:45:06;6.38;;;5.78;;
9005;SDS011;62284;50.702;7.140;2022-09-14T06:47:34;5.80;;;5.40;;
9005;SDS011;62284;50.702;7.140;2022-09-14T06:50:01;6.65;;;6.07;;
9005;SDS011;62284;50.702;7.140;2022-09-14T06:52:28;6.97;;;6.38;;
9005;SDS011;62284;50.702;7.140;2022-09-14T06:54:54;6.22;;;5.68;;
9005;SDS011;62284;50.702;7.140;2022-09-14T06:57:21;6.38;;;5.88;;
9005;SDS011;62284;50.702;7.140;2022-09-14T06:59:48;5.80;;;5.40;;
9005;SDS011;62284;50.702;7.140;2022-09-14T07:02:16;6.43;;;5.22;;
9005;SDS011;62284;50.702;7.140;2022-09-14T07:04:43;5.70;;;5.20;;
9005;SDS011;62284;50.702;7.140;2022-09-14T07:07:10;6.10;;;5.60;;
9005;SDS011;62284;50.702;7.140;2022-09-14T07:09:40;6.78;;;6.18;;
9005;SDS011;62284;50.702;7.140;2022-09-14T07:12:06;4.72;;;4.20;;
9005;SDS011;62284;50.702;7.140;2022-09-14T07:14:35;4.35;;;4.00;;
9005;SDS011;62284;50.702;7.140;2022-09-14T07:17:02;4.13;;;3.72;;
9005;SDS011;62284;50.702;7.140;2022-09-14T07:19:31;3.50;;;3.20;;
9005;SDS011;62284;50.702;7.140;2022-09-14T07:21:57;3.42;;;3.22;;
9005;SDS011;62284;50.702;7.140;2022-09-14T07:24:25;3.78;;;3.47;;
9005;SDS011;62284;50.702;7.140;2022-09-14T07:26:52;3.63;;;3.30;;
9005;SDS011;62284;50.702;7.140;2022-09-14T07:29:19;3.50;;;3.30;;
9005;SDS011;62284;50.702;7.140;2022-09-14T07:31:47;2.70;;;2.60;;
9005;SDS011;62284;50.702;7.140;2022-09-14T07:34:15;3.58;;;3.38;;
9005;SDS011;62284;50.702;7.140;2022-09-14T07:36:44;3.25;;;3.05;;
9005;SDS011;62284;50.702;7.140;2022-09-14T07:39:12;2.85;;;2.65;;
9005;SDS011;62284;50.702;7.140;2022-09-14T07:41:41;3.60;;;3.30;;
9005;SDS011;62284;50.702;7.140;2022-09-14T07:44:08;3.80;;;3.60;;
9005;SDS011;62284;50.702;7.140;2022-09-14T07:46:39;4.05;;;3.78;;
9005;SDS011;62284;50.702;7.140;2022-09-14T07:49:08;4.25;;;3.95;;
9005;SDS011;62284;50.702;7.140;2022-09-14T07:51:37;4.68;;;4.28;;
9005;SDS011;62284;50.702;7.140;2022-09-14T07:54:06;4.45;;;4.15;;
9005;SDS011;62284;50.702;7.140;2022-09-14T07:56:36;4.50;;;4.10;;
9005;SDS011;62284;50.702;7.140;2022-09-14T07:59:03;4.82;;;4.53;;
9005;SDS011;62284;50.702;7.140;2022-09-14T08:01:30;4.80;;;4.40;;
9005;SDS011;62284;50.702;7.140;2022-09-14T08:03:59;4.30;;;4.00;;
9005;SDS011;62284;50.702;7.140;2022-09-14T08:06:27;4.13;;;3.83;;
9005;SDS011;62284;50.702;7.140;2022-09-14T08:08:55;4.03;;;3.72;;
9005;SDS011;62284;50.702;7.140;2022-09-14T08:11:26;4.00;;;3.70;;
9005;SDS011;62284;50.702;7.140;2022-09-14T08:13:54;4.00;;;3.70;;
9005;SDS011;62284;50.702;7.140;2022-09-14T08:16:22;4.10;;;3.80;;
9005;SDS011;62284;50.702;7.140;2022-09-14T08:18:52;3.33;;;3.13;;
9005;SDS011;62284;50.702;7.140;2022-09-14T08:21:20;3.88;;;3.63;;
9005;SDS011;62284;50.702;7.140;2022-09-14T08:23:47;4.43;;;4.03;;
9005;SDS011;62284;50.702;7.140;2022-09-14T08:26:14;4.10;;;3.80;;
9005;SDS011;62284;50.702;7.140;2022-09-14T08:28:44;4.60;;;4.20;;
9005;SDS011;62284;50.702;7.140;2022-09-14T08:31:12;4.95;;;4.55;;
9005;SDS011;62284;50.702;7.140;2022-09-14T08:33:41;3.88;;;3.58;;
9005;SDS011;62284;50.702;7.140;2022-09-14T08:36:10;4.70;;;4.30;;
9005;SDS011;62284;50.702;7.140;2022-09-14T08:38:38;4.50;;;4.10;;
9005;SDS011;62284;50.702;7.140;2022-09-14T08:41:08;3.50;;;3.25;;
9005;SDS011;62284;50.702;7.140;2022-09-14T08:43:44;3.83;;;3.60;;
9005;SDS011;62284;50.702;7.140;2022-09-14T08:46:13;4.60;;;4.20;;
9005;SDS011;62284;50.702;7.140;2022-09-14T08:48:46;3.65;;;3.35;;
9005;SDS011;62284;50.702;7.140;2022-09-14T08:51:14;3.40;;;3.20;;
9005;SDS011;62284;50.702;7.140;2022-09-14T08:53:42;3.63;;;3.40;;
9005;SDS011;62284;50.702;7.140;2022-09-14T08:56:11;3.50;;;3.30;;
9005;SDS011;62284;50.702;7.140;2022-09-14T09:01:35;3.75;;;3.13;;
9005;SDS011;62284;50.702;7.140;2022-09-14T09:04:11;3.90;;;3.70;;
9005;SDS011;62284;50.702;7.140;2022-09-14T09:06:49;4.10;;;3.75;;
9005;SDS011;62284;50.702;7.140;2022-09-14T09:09:26;3.92;;;3.20;;
9005;SDS011;62284;50.702;7.140;2022-09-14T09:11:58;3.53;;;3.33;;
9005;SDS011;62284;50.702;7.140;2022-09-14T09:14:28;3.30;;;3.10;;
9005;SDS011;62284;50.702;7.140;2022-09-14T09:17:00;3.50;;;3.20;;
9005;SDS011;62284;50.702;7.140;2022-09-14T09:19:31;3.33;;;3.13;;
9005;SDS011;62284;50.702;7.140;2022-09-14T09:22:02;2.50;;;2.30;;
9005;SDS011;62284;50.702;7.140;2022-09-14T09:24:32;3.05;;;2.83;;
9005;SDS011;62284;50.702;7.140;2022-09-14T09:27:04;2.78;;;2.45;;
9005;SDS011;62284;50.702;7.140;2022-09-14T09:29:36;3.22;;;2.53;;
9005;SDS011;62284;50.702;7.140;2022-09-14T09:32:03;2.50;;;2.30;;
9005;SDS011;62284;50.702;7.140;2022-09-14T09:34:32;4.47;;;3.20;;
9005;SDS011;62284;50.702;7.140;2022-09-14T09:37:00;3.00;;;2.80;;
9005;SDS011;62284;50.702;7.140;2022-09-14T09:39:28;3.30;;;3.00;;
9005;SDS011;62284;50.702;7.140;2022-09-14T09:41:57;5.50;;;3.00;;
9005;SDS011;62284;50.702;7.140;2022-09-14T09:44:27;2.92;;;2.72;;
9005;SDS011;62284;50.702;7.140;2022-09-14T09:46:56;3.83;;;3.50;;
9005;SDS011;62284;50.702;7.140;2022-09-14T09:49:25;3.60;;;3.33;;
9005;SDS011;62284;50.702;7.140;2022-09-14T09:51:55;2.72;;;2.53;;
9005;SDS011;62284;50.702;7.140;2022-09-14T09:54:31;3.40;;;3.10;;
9005;SDS011;62284;50.702;7.140;2022-09-14T09:56:59;3.08;;;2.78;;
9005;SDS011;62284;50.702;7.140;2022-09-14T09:59:29;2.70;;;2.50;;
9005;SDS011;62284;50.702;7.140;2022-09-14T10:04:57;2.53;;;2.40;;
9005;SDS011;62284;50.702;7.140;2022-09-14T10:07:25;2.85;;;2.65;;
9005;SDS011;62284;50.702;7.140;2022-09-14T10:09:57;4.80;;;4.45;;
9005;SDS011;62284;50.702;7.140;2022-09-14T10:12:25;5.20;;;4.80;;
9005;SDS011;62284;50.702;7.140;2022-09-14T10:15:07;5.60;;;5.20;;
9005;SDS011;62284;50.702;7.140;2022-09-14T10:18:05;6.00;;;5.40;;
9005;SDS011;62284;50.702;7.140;2022-09-14T10:20:35;5.72;;;5.22;;
9005;SDS011;62284;50.702;7.140;2022-09-14T10:25:48;5.43;;;5.00;;
9005;SDS011;62284;50.702;7.140;2022-09-14T10:28:21;6.53;;;6.03;;
9005;SDS011;62284;50.702;7.140;2022-09-14T10:30:52;6.00;;;5.60;;
9005;SDS011;62284;50.702;7.140;2022-09-14T10:33:26;5.75;;;5.35;;
9005;SDS011;62284;50.702;7.140;2022-09-14T10:35:55;6.45;;;5.95;;
9005;SDS011;62284;50.702;7.140;2022-09-14T10:38:29;5.80;;;5.47;;
9005;SDS011;62284;50.702;7.140;2022-09-14T10:41:03;6.35;;;5.90;;
9005;SDS011;62284;50.702;7.140;2022-09-14T10:43:40;7.00;;;6.60;;
9005;SDS011;62284;50.702;7.140;2022-09-14T10:46:17;7.63;;;7.13;;
9005;SDS011;62284;50.702;7.140;2022-09-14T10:48:54;8.35;;;7.78;;
9005;SDS011;62284;50.702;7.140;2022-09-14T10:51:42;8.50;;;7.90;;
9005;SDS011;62284;50.702;7.140;2022-09-14T10:54:21;9.98;;;9.38;;
9005;SDS011;62284;50.702;7.140;2022-09-14T10:57:04;10.77;;;10.05;;
9005;SDS011;62284;50.702;7.140;2022-09-14T10:59:42;11.00;;;10.20;;
9005;SDS011;62284;50.702;7.140;2022-09-14T11:02:33;11.05;;;10.35;;
9005;SDS011;62284;50.702;7.140;2022-09-14T11:05:17;12.50;;;11.60;;
9005;SDS011;62284;50.702;7.140;2022-09-14T11:07:53;12.75;;;12.02;;
9005;SDS011;62284;50.702;7.140;2022-09-14T11:10:29;12.95;;;12.05;;
9005;SDS011;62284;50.702;7.140;2022-09-14T11:13:15;12.30;;;11.48;;
9005;SDS011;62284;50.702;7.140;2022-09-14T11:16:01;12.02;;;11.20;;
9005;SDS011;62284;50.702;7.140;2022-09-14T11:18:36;14.63;;;13.52;;
9005;SDS011;62284;50.702;7.140;2022-09-14T11:21:16;15.30;;;14.30;;
9005;SDS011;62284;50.702;7.140;2022-09-14T11:23:50;15.50;;;14.30;;
9005;SDS011;62284;50.702;7.140;2022-09-14T11:26:22;15.45;;;14.45;;
9005;SDS011;62284;50.702;7.140;2022-09-14T11:28:57;13.77;;;12.88;;
9005;SDS011;62284;50.702;7.140;2022-09-14T11:31:33;16.23;;;15.15;;
9005;SDS011;62284;50.702;7.140;2022-09-14T11:34:15;16.33;;;15.23;;
9005;SDS011;62284;50.702;7.140;2022-09-14T11:36:49;17.17;;;15.98;;
9005;SDS011;62284;50.702;7.140;2022-09-14T11:39:19;17.42;;;16.17;;
9005;SDS011;62284;50.702;7.140;2022-09-14T11:41:49;14.60;;;13.60;;
9005;SDS011;62284;50.702;7.140;2022-09-14T11:44:20;14.32;;;13.32;;
9005;SDS011;62284;50.702;7.140;2022-09-14T11:46:50;12.90;;;12.10;;
9005;SDS011;62284;50.702;7.140;2022-09-14T11:49:25;11.73;;;10.93;;
9005;SDS011;62284;50.702;7.140;2022-09-14T11:51:57;11.75;;;10.95;;
9005;SDS011;62284;50.702;7.140;2022-09-14T11:54:29;11.75;;;11.00;;
9005;SDS011;62284;50.702;7.140;2022-09-14T11:56:57;13.13;;;12.23;;
9005;SDS011;62284;50.702;7.140;2022-09-14T11:59:33;12.75;;;11.95;;
9005;SDS011;62284;50.702;7.140;2022-09-14T12:05:34;12.88;;;11.98;;
9005;SDS011;62284;50.702;7.140;2022-09-14T12:17:05;10.68;;;9.98;;
9005;SDS011;62284;50.702;7.140;2022-09-14T12:19:40;11.82;;;11.02;;
9005;SDS011;62284;50.702;7.140;2022-09-14T12:25:03;11.82;;;11.10;;
9005;SDS011;62284;50.702;7.140;2022-09-14T12:27:42;11.38;;;10.55;;
9005;SDS011;62284;50.702;7.140;2022-09-14T12:36:10;9.50;;;8.90;;
9005;SDS011;62284;50.702;7.140;2022-09-14T12:44:56;10.15;;;9.55;;
9005;SDS011;62284;50.702;7.140;2022-09-14T12:50:20;12.40;;;11.50;;
9005;SDS011;62284;50.702;7.140;2022-09-14T12:52:53;10.63;;;9.93;;
9005;SDS011;62284;50.702;7.140;2022-09-14T12:55:46;11.82;;;11.13;;
9005;SDS011;62284;50.702;7.140;2022-09-14T12:58:24;12.30;;;11.50;;
9005;SDS011;62284;50.702;7.140;2022-09-14T13:01:14;12.90;;;12.00;;
9005;SDS011;62284;50.702;7.140;2022-09-14T13:03:49;14.20;;;13.20;;
9005;SDS011;62284;50.702;7.140;2022-09-14T13:06:19;14.30;;;13.35;;
9005;SDS011;62284;50.702;7.140;2022-09-14T13:08:48;13.68;;;12.75;;
9005;SDS011;62284;50.702;7.140;2022-09-14T13:11:23;12.77;;;11.90;;
9005;SDS011;62284;50.702;7.140;2022-09-14T13:13:55;14.95;;;14.05;;
9005;SDS011;62284;50.702;7.140;2022-09-14T13:16:26;20.25;;;18.92;;
9005;SDS011;62284;50.702;7.140;2022-09-14T13:19:17;22.73;;;21.13;;
9005;SDS011;62284;50.702;7.140;2022-09-14T13:21:46;22.67;;;21.08;;
9005;SDS011;62284;50.702;7.140;2022-09-14T13:24:19;22.05;;;20.63;;
9005;SDS011;62284;50.702;7.140;2022-09-14T13:26:59;20.05;;;18.75;;
9005;SDS011;62284;50.702;7.140;2022-09-14T13:29:29;16.67;;;15.57;;
9005;SDS011;62284;50.702;7.140;2022-09-14T13:31:57;13.98;;;12.98;;
9005;SDS011;62284;50.702;7.140;2022-09-14T13:34:25;14.20;;;13.30;;
9005;SDS011;62284;50.702;7.140;2022-09-14T13:36:54;17.42;;;16.27;;
9005;SDS011;62284;50.702;7.140;2022-09-14T13:39:24;14.90;;;13.95;;
9005;SDS011;62284;50.702;7.140;2022-09-14T13:41:54;14.88;;;13.88;;
9005;SDS011;62284;50.702;7.140;2022-09-14T13:44:23;13.40;;;12.50;;
9005;SDS011;62284;50.702;7.140;2022-09-14T13:46:55;10.80;;;10.00;;
9005;SDS011;62284;50.702;7.140;2022-09-14T13:49:24;10.82;;;10.05;;
9005;SDS011;62284;50.702;7.140;2022-09-14T13:51:51;9.57;;;8.98;;
9005;SDS011;62284;50.702;7.140;2022-09-14T13:54:24;9.43;;;8.82;;
9005;SDS011;62284;50.702;7.140;2022-09-14T13:57:13;12.52;;;11.65;;
9005;SDS011;62284;50.702;7.140;2022-09-14T14:02:46;19.33;;;18.02;;
9005;SDS011;62284;50.702;7.140;2022-09-14T14:05:20;19.55;;;18.15;;
9005;SDS011;62284;50.702;7.140;2022-09-14T14:07:49;19.40;;;18.00;;
9005;SDS011;62284;50.702;7.140;2022-09-14T14:10:21;19.95;;;18.52;;
9005;SDS011;62284;50.702;7.140;2022-09-14T14:12:52;19.23;;;17.92;;
9005;SDS011;62284;50.702;7.140;2022-09-14T14:15:33;17.05;;;15.85;;
9005;SDS011;62284;50.702;7.140;2022-09-14T14:21:16;20.60;;;19.23;;
9005;SDS011;62284;50.702;7.140;2022-09-14T14:23:52;21.05;;;19.63;;
9005;SDS011;62284;50.702;7.140;2022-09-14T14:26:21;22.45;;;20.80;;
9005;SDS011;62284;50.702;7.140;2022-09-14T14:28:51;22.98;;;21.38;;
9005;SDS011;62284;50.702;7.140;2022-09-14T14:31:18;24.50;;;22.88;;
9005;SDS011;62284;50.702;7.140;2022-09-14T14:33:49;24.73;;;23.02;;
9005;SDS011;62284;50.702;7.140;2022-09-14T14:36:17;24.70;;;22.90;;
9005;SDS011;62284;50.702;7.140;2022-09-14T14:38:45;27.05;;;25.10;;
9005;SDS011;62284;50.702;7.140;2022-09-14T14:41:13;23.67;;;22.02;;
9005;SDS011;62284;50.702;7.140;2022-09-14T14:43:41;25.85;;;23.95;;
9005;SDS011;62284;50.702;7.140;2022-09-14T14:46:10;25.10;;;23.17;;
9005;SDS011;62284;50.702;7.140;2022-09-14T14:48:39;20.52;;;19.02;;
9005;SDS011;62284;50.702;7.140;2022-09-14T14:51:10;18.48;;;17.15;;
9005;SDS011;62284;50.702;7.140;2022-09-14T14:53:39;16.92;;;15.75;;
9005;SDS011;62284;50.702;7.140;2022-09-14T14:56:06;18.50;;;17.23;;
9005;SDS011;62284;50.702;7.140;2022-09-14T14:58:40;17.73;;;16.45;;
9005;SDS011;62284;50.702;7.140;2022-09-14T15:01:07;18.58;;;17.27;;
9005;SDS011;62284;50.702;7.140;2022-09-14T15:03:34;18.10;;;16.75;;
9005;SDS011;62284;50.702;7.140;2022-09-14T15:06:10;17.33;;;16.02;;
9005;SDS011;62284;50.702;7.140;2022-09-14T15:08:39;17.60;;;16.30;;
9005;SDS011;62284;50.702;7.140;2022-09-14T15:11:08;13.90;;;12.90;;
9005;SDS011;62284;50.702;7.140;2022-09-14T15:13:40;16.02;;;14.85;;
9005;SDS011;62284;50.702;7.140;2022-09-14T15:16:07;14.45;;;13.45;;
9005;SDS011;62284;50.702;7.140;2022-09-14T15:18:34;13.38;;;12.30;;
9005;SDS011;62284;50.702;7.140;2022-09-14T15:21:01;13.13;;;12.23;;
9005;SDS011;62284;50.702;7.140;2022-09-14T15:23:29;12.43;;;11.60;;
9005;SDS011;62284;50.702;7.140;2022-09-14T15:25:56;12.27;;;11.48;;
9005;SDS011;62284;50.702;7.140;2022-09-14T15:28:23;12.93;;;12.02;;
9005;SDS011;62284;50.702;7.140;2022-09-14T15:30:50;13.15;;;12.25;;
9005;SDS011;62284;50.702;7.140;2022-09-14T15:33:17;11.50;;;10.80;;
9005;SDS011;62284;50.702;7.140;2022-09-14T15:35:44;10.70;;;9.90;;
9005;SDS011;62284;50.702;7.140;2022-09-14T15:38:11;10.60;;;9.90;;
9005;SDS011;62284;50.702;7.140;2022-09-14T15:40:39;9.15;;;8.43;;
9005;SDS011;62284;50.702;7.140;2022-09-14T15:43:06;9.68;;;8.98;;
9005;SDS011;62284;50.702;7.140;2022-09-14T15:45:33;8.77;;;8.18;;
9005;SDS011;62284;50.702;7.140;2022-09-14T15:48:00;7.82;;;7.32;;
9005;SDS011;62284;50.702;7.140;2022-09-14T15:50:27;9.18;;;8.57;;
9005;SDS011;62284;50.702;7.140;2022-09-14T15:52:54;8.52;;;8.02;;
9005;SDS011;62284;50.702;7.140;2022-09-14T15:55:21;7.95;;;7.45;;